createdAt,value
2019-04-27T00:01:57.956Z,20.90
2019-04-27T00:04:48.672Z,20.80
2019-04-27T00:07:38.456Z,20.90
2019-04-27T00:10:16.395Z,20.90
2019-04-27T00:12:45.115Z,20.80
2019-04-27T00:15:19.541Z,20.70
2019-04-27T00:18:17.710Z,20.60
2019-04-27T00:21:03.591Z,20.50
2019-04-27T00:23:34.028Z,20.30
2019-04-27T00:26:03.222Z,20.20
2019-04-27T00:28:33.195Z,20.10
2019-04-27T00:31:03.314Z,20.00
2019-04-27T00:33:33.824Z,20.00
2019-04-27T00:36:08.723Z,19.90
2019-04-27T00:39:05.179Z,19.90
2019-04-27T00:41:34.217Z,19.80
2019-04-27T00:44:03.647Z,19.80
2019-04-27T00:46:34.380Z,19.80
2019-04-27T00:49:04.583Z,19.80
2019-04-27T00:51:33.390Z,19.70
2019-04-27T00:54:04.666Z,19.70
2019-04-27T00:56:59.348Z,19.70
2019-04-27T01:00:00.171Z,19.80
2019-04-27T01:02:41.157Z,19.70
2019-04-27T01:05:17.149Z,19.70
2019-04-27T01:07:45.868Z,19.70
2019-04-27T01:10:14.981Z,19.60
2019-04-27T01:12:43.924Z,19.60
2019-04-27T01:15:13.814Z,19.60
2019-04-27T01:17:42.474Z,19.60
2019-04-27T01:20:11.592Z,19.60
2019-04-27T01:22:40.138Z,19.60
2019-04-27T01:25:08.840Z,19.60
2019-04-27T01:28:00.327Z,19.60
2019-04-27T01:30:36.496Z,19.50
2019-04-27T01:33:05.026Z,19.50
2019-04-27T01:35:33.721Z,19.50
2019-04-27T01:38:02.796Z,19.50
2019-04-27T01:40:31.750Z,19.50
2019-04-27T01:43:00.107Z,19.40
2019-04-27T01:45:30.979Z,19.50
2019-04-27T01:48:01.490Z,19.40
2019-04-27T01:50:31.365Z,19.40
2019-04-27T01:53:00.115Z,19.40
2019-04-27T01:55:29.870Z,19.30
2019-04-27T01:57:58.746Z,19.30
2019-04-27T02:00:51.697Z,19.30
2019-04-27T02:03:25.171Z,19.30
2019-04-27T02:05:55.541Z,19.20
2019-04-27T02:08:24.663Z,19.20
2019-04-27T02:10:53.277Z,19.10
2019-04-27T02:13:21.799Z,19.10
2019-04-27T02:15:50.512Z,19.10
2019-04-27T02:18:19.846Z,19.00
2019-04-27T02:20:49.234Z,19.00
2019-04-27T02:23:19.229Z,19.00
2019-04-27T02:25:49.650Z,18.90
2019-04-27T02:28:29.557Z,19.00
2019-04-27T02:31:20.033Z,19.00
2019-04-27T02:34:02.480Z,18.90
2019-04-27T02:36:30.989Z,18.80
2019-04-27T02:38:59.622Z,18.90
2019-04-27T02:41:29.780Z,18.90
2019-04-27T02:44:13.560Z,18.90
2019-04-27T02:46:42.311Z,18.90
2019-04-27T02:49:12.715Z,18.80
2019-04-27T02:51:53.336Z,18.80
2019-04-27T02:54:21.764Z,18.80
2019-04-27T02:56:52.657Z,18.70
2019-04-27T02:59:20.613Z,18.70
2019-04-27T03:02:00.723Z,18.70
2019-04-27T03:04:30.389Z,18.70
2019-04-27T03:07:00.294Z,18.70
2019-04-27T03:09:30.470Z,18.70
2019-04-27T03:12:01.415Z,18.70
2019-04-27T03:14:56.229Z,18.70
2019-04-27T03:17:59.564Z,18.70
2019-04-27T03:20:50.492Z,18.70
2019-04-27T03:23:20.029Z,18.60
2019-04-27T03:26:00.347Z,18.60
2019-04-27T03:28:29.842Z,18.60
2019-04-27T03:31:02.495Z,18.60
2019-04-27T03:33:32.417Z,18.60
2019-04-27T03:36:02.584Z,18.60
2019-04-27T03:38:31.421Z,18.60
2019-04-27T03:41:00.590Z,18.60
2019-04-27T03:43:30.320Z,18.60
2019-04-27T03:46:00.429Z,18.60
2019-04-27T03:48:29.952Z,18.70
2019-04-27T03:51:24.069Z,18.70
2019-04-27T03:54:10.446Z,18.70
2019-04-27T03:56:44.632Z,18.60
2019-04-27T03:59:20.259Z,18.70
2019-04-27T04:01:50.658Z,18.60
2019-04-27T04:04:19.846Z,18.70
2019-04-27T04:06:49.519Z,18.70
2019-04-27T04:09:21.095Z,18.70
2019-04-27T04:11:59.151Z,18.70
2019-04-27T04:14:30.257Z,18.80
2019-04-27T04:17:03.025Z,18.60
2019-04-27T04:19:47.918Z,18.60
2019-04-27T04:22:02.201Z,18.50
2019-04-27T04:24:31.796Z,18.50
2019-04-27T04:27:00.475Z,18.50
2019-04-27T04:29:30.796Z,18.50
2019-04-27T04:32:00.498Z,18.50
2019-04-27T04:34:30.583Z,18.60
2019-04-27T04:37:00.452Z,18.60
2019-04-27T04:39:29.727Z,18.60
2019-04-27T04:42:10.668Z,18.60
2019-04-27T04:44:56.940Z,18.70
2019-04-27T04:47:36.632Z,18.60
2019-04-27T04:50:10.728Z,18.50
2019-04-27T04:52:41.815Z,18.50
2019-04-27T04:55:10.776Z,18.50
2019-04-27T04:57:39.986Z,18.50
2019-04-27T05:00:09.884Z,18.40
2019-04-27T05:02:39.815Z,18.30
2019-04-27T05:05:09.415Z,18.30
2019-04-27T05:07:38.837Z,18.30
2019-04-27T05:10:09.014Z,18.30
2019-04-27T05:12:38.696Z,18.30
2019-04-27T05:15:09.173Z,18.30
2019-04-27T05:17:39.737Z,18.30
2019-04-27T05:20:29.496Z,18.30
2019-04-27T05:22:59.405Z,18.20
2019-04-27T05:25:28.706Z,18.20
2019-04-27T05:27:57.251Z,18.10
2019-04-27T05:30:25.782Z,18.00
2019-04-27T05:32:54.181Z,18.10
2019-04-27T05:35:22.655Z,18.00
2019-04-27T05:37:51.250Z,18.00
2019-04-27T05:40:20.178Z,18.00
2019-04-27T05:42:55.082Z,18.00
2019-04-27T05:46:36.814Z,17.90
2019-04-27T05:49:09.379Z,17.90
2019-04-27T05:51:40.536Z,17.90
2019-04-27T05:54:10.379Z,18.20
2019-04-27T05:56:41.049Z,18.30
2019-04-27T05:59:09.535Z,18.20
2019-04-27T06:01:39.108Z,18.20
2019-04-27T06:04:08.978Z,18.00
2019-04-27T06:06:39.705Z,18.00
2019-04-27T06:09:09.465Z,18.10
2019-04-27T06:11:39.837Z,18.10
2019-04-27T06:14:09.657Z,18.20
2019-04-27T06:16:39.576Z,18.20
2019-04-27T06:19:09.580Z,18.30
2019-04-27T06:21:40.112Z,18.20
2019-04-27T06:24:09.171Z,18.00
2019-04-27T06:26:40.010Z,17.90
2019-04-27T06:29:09.484Z,17.90
2019-04-27T06:31:39.634Z,18.00
2019-04-27T06:34:09.837Z,18.20
2019-04-27T06:36:38.827Z,18.20
2019-04-27T06:39:09.785Z,18.20
2019-04-27T06:41:40.009Z,18.10
2019-04-27T06:44:11.007Z,18.30
2019-04-27T06:46:40.329Z,18.50
2019-04-27T06:49:11.053Z,18.40
2019-04-27T06:51:40.152Z,18.30
2019-04-27T06:54:09.300Z,18.40
2019-04-27T06:56:39.787Z,18.70
2019-04-27T06:59:08.858Z,19.10
2019-04-27T07:01:38.949Z,19.10
2019-04-27T07:04:08.864Z,19.00
2019-04-27T07:06:51.120Z,18.90
2019-04-27T07:09:09.629Z,18.50
2019-04-27T07:11:39.480Z,18.40
2019-04-27T07:14:11.263Z,18.30
2019-04-27T07:16:39.282Z,18.40
2019-04-27T07:19:09.412Z,18.50
2019-04-27T07:21:40.005Z,18.50
2019-04-27T07:24:09.141Z,18.70
2019-04-27T07:26:39.120Z,18.50
2019-04-27T07:29:09.580Z,18.60
2019-04-27T07:31:40.001Z,18.60
2019-04-27T07:34:09.456Z,18.60
2019-04-27T07:36:39.314Z,18.20
2019-04-27T07:39:09.653Z,18.00
2019-04-27T07:41:39.766Z,18.00
2019-04-27T07:44:29.337Z,18.10
2019-04-27T07:47:15.922Z,18.20
2019-04-27T07:49:45.381Z,18.30
2019-04-27T07:52:15.044Z,18.20
2019-04-27T07:54:45.140Z,18.20
2019-04-27T07:57:15.347Z,18.30
2019-04-27T07:59:43.922Z,18.30
2019-04-27T08:02:13.849Z,18.30
2019-04-27T08:04:42.909Z,18.30
2019-04-27T08:07:11.281Z,18.10
2019-04-27T08:09:39.922Z,17.80
2019-04-27T08:12:08.183Z,17.80
2019-04-27T08:14:38.470Z,17.70
2019-04-27T08:17:06.918Z,17.60
2019-04-27T08:19:35.536Z,17.70
2019-04-27T08:22:04.494Z,17.80
2019-04-27T08:24:33.582Z,17.90
2019-04-27T08:27:39.559Z,18.10
2019-04-27T08:30:16.110Z,17.90
2019-04-27T08:32:46.162Z,17.80
2019-04-27T08:35:14.862Z,17.90
2019-04-27T08:37:43.674Z,18.10
2019-04-27T08:40:13.163Z,18.30
2019-04-27T08:42:42.232Z,18.30
2019-04-27T08:45:11.270Z,18.20
2019-04-27T08:47:41.775Z,18.20
2019-04-27T08:50:11.557Z,18.10
2019-04-27T08:52:41.868Z,18.30
2019-04-27T08:55:11.331Z,18.20
2019-04-27T08:57:41.887Z,18.20
2019-04-27T09:00:10.827Z,18.30
2019-04-27T09:02:46.591Z,18.60
2019-04-27T09:05:09.902Z,18.70
2019-04-27T09:08:04.671Z,18.70
2019-04-27T09:10:42.264Z,18.60
2019-04-27T09:13:23.547Z,18.60
2019-04-27T09:16:11.620Z,18.60
2019-04-27T09:18:41.078Z,18.60
2019-04-27T09:21:10.633Z,18.60
2019-04-27T09:23:39.565Z,18.70
2019-04-27T09:26:09.516Z,18.90
2019-04-27T09:28:38.805Z,18.60
2019-04-27T09:31:09.236Z,18.70
2019-04-27T09:33:37.572Z,18.80
2019-04-27T09:36:06.226Z,19.00
2019-04-27T09:38:35.821Z,18.90
2019-04-27T09:41:07.026Z,18.70
2019-04-27T09:43:36.773Z,18.80
2019-04-27T09:46:05.869Z,18.80
2019-04-27T09:48:36.163Z,18.30
2019-04-27T09:51:06.465Z,18.40
2019-04-27T09:53:36.470Z,18.60
2019-04-27T09:56:06.669Z,18.60
2019-04-27T09:58:37.496Z,18.70
2019-04-27T10:01:06.691Z,18.80
2019-04-27T10:03:36.179Z,18.50
2019-04-27T10:06:05.964Z,18.50
2019-04-27T10:08:36.669Z,18.40
2019-04-27T10:11:05.943Z,18.50
2019-04-27T10:13:36.233Z,18.30
2019-04-27T10:16:05.476Z,18.40
2019-04-27T10:18:34.054Z,18.60
2019-04-27T10:21:02.669Z,18.60
2019-04-27T10:23:31.425Z,18.80
2019-04-27T10:26:00.400Z,18.90
2019-04-27T10:28:29.745Z,18.60
2019-04-27T10:30:58.809Z,18.40
2019-04-27T10:33:29.037Z,18.50
2019-04-27T10:35:57.573Z,18.20
2019-04-27T10:38:26.166Z,18.10
2019-04-27T10:40:54.990Z,18.10
2019-04-27T10:43:23.719Z,18.30
2019-04-27T10:45:52.398Z,18.20
2019-04-27T10:48:20.806Z,18.20
2019-04-27T10:50:49.726Z,18.20
2019-04-27T10:53:18.501Z,18.00
2019-04-27T10:55:47.123Z,18.00
2019-04-27T10:58:16.952Z,18.00
2019-04-27T11:00:51.386Z,18.10
2019-04-27T11:03:39.811Z,17.90
2019-04-27T11:06:27.919Z,17.70
2019-04-27T11:08:57.087Z,17.60
2019-04-27T11:11:25.923Z,17.70
2019-04-27T11:13:57.240Z,17.90
2019-04-27T11:16:26.674Z,18.00
2019-04-27T11:18:56.147Z,18.30
2019-04-27T11:21:26.170Z,18.10
2019-04-27T11:23:55.982Z,18.10
2019-04-27T11:26:26.211Z,18.10
2019-04-27T11:28:55.036Z,18.10
2019-04-27T11:31:23.338Z,18.00
2019-04-27T11:33:52.882Z,18.00
2019-04-27T11:36:30.985Z,18.00
2019-04-27T11:39:02.468Z,17.90
2019-04-27T11:41:31.190Z,17.90
2019-04-27T11:44:00.111Z,17.90
2019-04-27T11:46:29.990Z,17.80
2019-04-27T11:48:58.692Z,17.70
2019-04-27T11:51:27.035Z,17.60
2019-04-27T11:53:55.900Z,17.60
2019-04-27T11:56:24.341Z,17.50
2019-04-27T11:58:52.867Z,17.50
2019-04-27T12:01:23.703Z,17.50
2019-04-27T12:03:52.369Z,17.50
2019-04-27T12:06:20.986Z,17.40
2019-04-27T12:08:49.733Z,17.40
2019-04-27T12:11:18.755Z,17.50
2019-04-27T12:13:47.713Z,17.50
2019-04-27T12:16:17.619Z,17.70
2019-04-27T12:18:48.858Z,17.70
2019-04-27T12:21:17.217Z,17.90
2019-04-27T12:23:47.244Z,17.80
2019-04-27T12:26:30.134Z,17.70
2019-04-27T12:29:00.313Z,17.90
2019-04-27T12:31:38.043Z,17.80
2019-04-27T12:34:06.991Z,17.70
2019-04-27T12:36:35.994Z,17.60
2019-04-27T12:39:11.935Z,17.50
2019-04-27T12:41:40.927Z,17.50
2019-04-27T12:44:10.191Z,17.50
2019-04-27T12:46:38.935Z,17.30
2019-04-27T12:49:08.187Z,17.40
2019-04-27T12:51:37.348Z,17.60
2019-04-27T12:54:12.555Z,17.40
2019-04-27T12:57:16.522Z,17.40
2019-04-27T12:59:57.177Z,17.40
2019-04-27T13:02:30.532Z,17.30
2019-04-27T13:04:59.458Z,17.40
2019-04-27T13:07:28.405Z,17.40
2019-04-27T13:09:56.792Z,17.30
2019-04-27T13:12:27.325Z,17.30
2019-04-27T13:14:56.070Z,17.30
2019-04-27T13:17:26.420Z,17.20
2019-04-27T13:19:56.460Z,17.10
2019-04-27T13:22:25.413Z,17.10
2019-04-27T13:24:53.866Z,17.00
2019-04-27T13:27:22.532Z,17.00
2019-04-27T13:29:51.231Z,17.00
2019-04-27T13:32:19.587Z,17.10
2019-04-27T13:34:48.240Z,17.10
2019-04-27T13:37:55.927Z,17.00
2019-04-27T13:40:26.048Z,16.90
2019-04-27T13:43:14.411Z,16.60
2019-04-27T13:46:05.438Z,16.70
2019-04-27T13:48:53.608Z,16.70
2019-04-27T13:51:53.709Z,16.60
2019-04-27T13:54:26.484Z,16.70
2019-04-27T13:56:53.216Z,16.50
2019-04-27T13:59:21.908Z,16.60
2019-04-27T14:01:50.955Z,16.50
2019-04-27T14:04:21.716Z,16.20
2019-04-27T14:06:50.147Z,16.10
2019-04-27T14:09:18.840Z,16.00
2019-04-27T14:11:48.235Z,16.00
2019-04-27T14:14:18.429Z,15.90
2019-04-27T14:16:47.327Z,16.00
2019-04-27T14:19:15.751Z,16.00
2019-04-27T14:21:44.347Z,16.00
2019-04-27T14:24:12.950Z,15.90
2019-04-27T14:26:41.259Z,15.80
2019-04-27T14:29:09.870Z,15.70
2019-04-27T14:31:39.631Z,15.70
2019-04-27T14:34:09.104Z,15.80
2019-04-27T14:36:40.383Z,15.90
2019-04-27T14:39:10.695Z,16.00
2019-04-27T14:41:40.647Z,16.00
2019-04-27T14:44:10.695Z,15.90
2019-04-27T14:46:39.612Z,15.90
2019-04-27T14:49:08.289Z,15.90
2019-04-27T14:51:39.903Z,15.90
2019-04-27T14:54:09.112Z,15.90
2019-04-27T14:56:38.666Z,16.00
2019-04-27T14:59:07.607Z,15.90
2019-04-27T15:01:39.413Z,15.80
2019-04-27T15:04:08.350Z,15.80
2019-04-27T15:06:38.934Z,15.70
2019-04-27T15:09:07.891Z,15.70
2019-04-27T15:11:36.323Z,15.80
2019-04-27T15:14:04.933Z,15.80
2019-04-27T15:16:33.570Z,15.70
2019-04-27T15:19:05.760Z,15.50
2019-04-27T15:21:38.879Z,15.50
2019-04-27T15:24:10.031Z,15.40
2019-04-27T15:26:36.067Z,15.40
2019-04-27T15:29:06.469Z,15.40
2019-04-27T15:31:40.889Z,15.50
2019-04-27T15:34:29.132Z,15.50
2019-04-27T15:37:22.256Z,15.60
2019-04-27T15:40:12.781Z,15.70
2019-04-27T15:42:51.688Z,15.80
2019-04-27T15:45:20.575Z,15.80
2019-04-27T15:47:53.994Z,15.80
2019-04-27T15:50:18.261Z,15.70
2019-04-27T15:52:48.771Z,15.50
2019-04-27T15:55:31.821Z,15.40
2019-04-27T15:57:50.061Z,15.50
2019-04-27T16:00:23.362Z,15.50
2019-04-27T16:02:52.777Z,15.40
2019-04-27T16:05:23.455Z,15.50
2019-04-27T16:07:54.640Z,15.60
2019-04-27T16:10:23.345Z,15.40
2019-04-27T16:13:05.858Z,15.30
2019-04-27T16:15:22.470Z,15.30
2019-04-27T16:17:55.903Z,15.30
2019-04-27T16:20:29.272Z,15.10
2019-04-27T16:22:52.007Z,15.00
2019-04-27T16:25:23.650Z,14.90
2019-04-27T16:27:51.538Z,14.80
2019-04-27T16:30:20.644Z,14.80
2019-04-27T16:32:49.458Z,14.80
2019-04-27T16:35:19.461Z,14.80
2019-04-27T16:38:01.461Z,14.80
2019-04-27T16:40:32.724Z,14.80
2019-04-27T16:43:02.874Z,14.70
2019-04-27T16:45:31.421Z,14.80
2019-04-27T16:48:02.079Z,14.90
2019-04-27T16:50:31.115Z,14.80
2019-04-27T16:53:01.077Z,14.80
2019-04-27T16:55:34.087Z,14.70
2019-04-27T16:58:00.521Z,14.70
2019-04-27T17:00:30.347Z,14.80
2019-04-27T17:03:02.641Z,14.90
2019-04-27T17:05:34.265Z,14.90
2019-04-27T17:08:03.961Z,14.90
2019-04-27T17:10:32.705Z,14.90
2019-04-27T17:13:06.101Z,14.90
2019-04-27T17:15:53.723Z,14.80
2019-04-27T17:18:32.494Z,14.70
2019-04-27T17:21:15.846Z,14.70
2019-04-27T17:23:31.746Z,14.80
2019-04-27T17:26:09.291Z,14.80
2019-04-27T17:28:39.230Z,14.80
2019-04-27T17:31:08.798Z,14.70
2019-04-27T17:33:44.629Z,14.70
2019-04-27T17:36:16.388Z,14.70
2019-04-27T17:38:47.273Z,14.80
2019-04-27T17:41:14.846Z,14.80
2019-04-27T17:43:43.633Z,14.80
2019-04-27T17:46:13.205Z,14.70
2019-04-27T17:48:42.222Z,14.70
2019-04-27T17:51:10.825Z,14.70
2019-04-27T17:53:39.187Z,14.70
2019-04-27T17:56:08.579Z,14.70
2019-04-27T17:58:39.825Z,14.70
2019-04-27T18:01:09.373Z,14.60
2019-04-27T18:03:38.755Z,14.60
2019-04-27T18:06:08.792Z,14.50
2019-04-27T18:08:40.393Z,14.50
2019-04-27T18:11:09.417Z,14.50
2019-04-27T18:13:38.839Z,14.60
2019-04-27T18:16:09.148Z,14.70
2019-04-27T18:18:46.244Z,14.60
2019-04-27T18:21:15.076Z,14.60
2019-04-27T18:23:49.376Z,14.50
2019-04-27T18:26:46.206Z,14.50
2019-04-27T18:29:04.617Z,14.50
2019-04-27T18:31:33.256Z,14.50
2019-04-27T18:34:01.943Z,14.50
2019-04-27T18:36:30.908Z,14.60
2019-04-27T18:38:59.270Z,14.50
2019-04-27T18:41:28.748Z,14.40
2019-04-27T18:43:59.927Z,14.40
2019-04-27T18:46:28.301Z,14.40
2019-04-27T18:49:13.783Z,14.40
2019-04-27T18:52:04.318Z,14.30
2019-04-27T18:54:33.136Z,14.30
2019-04-27T18:57:04.786Z,14.30
2019-04-27T18:59:33.326Z,14.30
2019-04-27T19:02:02.514Z,14.30
2019-04-27T19:04:30.973Z,14.20
2019-04-27T19:07:01.282Z,14.20
2019-04-27T19:09:31.766Z,14.20
2019-04-27T19:12:00.259Z,14.20
2019-04-27T19:14:30.362Z,14.20
2019-04-27T19:16:59.127Z,14.20
2019-04-27T19:19:28.124Z,14.20
2019-04-27T19:21:58.755Z,14.20
2019-04-27T19:24:28.195Z,14.10
2019-04-27T19:27:17.689Z,14.20
2019-04-27T19:29:43.612Z,14.20
2019-04-27T19:32:12.423Z,14.10
2019-04-27T19:34:41.667Z,14.10
2019-04-27T19:37:10.367Z,14.10
2019-04-27T19:39:39.333Z,14.20
2019-04-27T19:42:08.046Z,14.30
2019-04-27T19:44:38.812Z,14.20
2019-04-27T19:47:10.290Z,14.30
2019-04-27T19:49:38.878Z,14.30
2019-04-27T19:52:08.657Z,14.30
2019-04-27T19:54:37.519Z,14.30
2019-04-27T19:57:05.966Z,14.30
2019-04-27T19:59:40.933Z,14.30
2019-04-27T20:02:13.921Z,14.40
2019-04-27T20:04:44.651Z,14.40
2019-04-27T20:07:14.182Z,14.50
2019-04-27T20:09:50.615Z,14.50
2019-04-27T20:12:21.314Z,14.50
2019-04-27T20:14:55.980Z,14.70
2019-04-27T20:17:31.113Z,14.60
2019-04-27T20:20:00.629Z,14.40
2019-04-27T20:22:31.213Z,14.40
2019-04-27T20:25:01.932Z,14.40
2019-04-27T20:27:32.155Z,14.40
2019-04-27T20:30:03.181Z,14.40
2019-04-27T20:32:31.877Z,14.40
2019-04-27T20:35:01.843Z,14.40
2019-04-27T20:37:31.403Z,14.40
2019-04-27T20:40:01.953Z,14.40
2019-04-27T20:42:31.499Z,14.50
2019-04-27T20:45:02.073Z,14.60
2019-04-27T20:47:31.830Z,14.50
2019-04-27T20:50:01.862Z,14.50
2019-04-27T20:52:58.795Z,14.40
2019-04-27T20:55:27.159Z,14.40
2019-04-27T20:58:01.826Z,14.20
2019-04-27T21:00:26.227Z,14.20
2019-04-27T21:03:14.382Z,14.20
2019-04-27T21:06:07.239Z,14.20
2019-04-27T21:08:38.009Z,14.10
2019-04-27T21:11:08.477Z,14.10
2019-04-27T21:13:37.222Z,14.10
2019-04-27T21:16:07.087Z,14.10
2019-04-27T21:18:35.815Z,14.10
2019-04-27T21:21:04.542Z,14.10
2019-04-27T21:23:33.240Z,14.10
2019-04-27T21:26:02.507Z,14.20
2019-04-27T21:28:31.674Z,14.20
2019-04-27T21:31:00.195Z,14.10
2019-04-27T21:33:31.688Z,14.10
2019-04-27T21:36:01.762Z,14.10
2019-04-27T21:38:30.189Z,14.10
2019-04-27T21:40:58.927Z,14.10
2019-04-27T21:43:27.272Z,14.20
2019-04-27T21:45:55.643Z,14.20
2019-04-27T21:48:24.468Z,14.20
2019-04-27T21:50:53.046Z,14.10
2019-04-27T21:53:41.141Z,14.10
2019-04-27T21:56:11.217Z,14.10
2019-04-27T21:58:42.056Z,14.00
2019-04-27T22:01:27.732Z,13.90
2019-04-27T22:03:56.577Z,13.80
2019-04-27T22:06:25.692Z,13.90
2019-04-27T22:08:54.735Z,13.80
2019-04-27T22:11:25.182Z,13.90
2019-04-27T22:13:53.591Z,13.80
2019-04-27T22:16:22.330Z,13.90
2019-04-27T22:18:51.918Z,13.80
2019-04-27T22:21:21.620Z,13.80
2019-04-27T22:24:01.314Z,13.80
2019-04-27T22:26:31.452Z,13.80
2019-04-27T22:29:01.611Z,13.80
2019-04-27T22:31:31.357Z,13.70
2019-04-27T22:34:01.811Z,13.60
2019-04-27T22:36:30.554Z,13.60
2019-04-27T22:39:03.221Z,13.70
2019-04-27T22:41:41.681Z,13.60
2019-04-27T22:44:27.105Z,13.60
2019-04-27T22:46:56.235Z,13.60
2019-04-27T22:49:24.953Z,13.70
2019-04-27T22:51:54.877Z,13.70
2019-04-27T22:54:23.876Z,13.70
2019-04-27T22:56:54.328Z,13.60
2019-04-27T22:59:29.222Z,13.70
2019-04-27T23:02:12.049Z,13.70
2019-04-27T23:04:44.489Z,13.70
2019-04-27T23:07:13.167Z,13.70
2019-04-27T23:09:43.390Z,13.70
2019-04-27T23:12:14.312Z,13.70
2019-04-27T23:14:42.843Z,13.60
2019-04-27T23:17:28.504Z,13.50
2019-04-27T23:19:57.119Z,13.50
2019-04-27T23:22:26.077Z,13.50
2019-04-27T23:24:54.537Z,13.50
2019-04-27T23:27:22.910Z,13.50
2019-04-27T23:29:51.642Z,13.60
2019-04-27T23:32:27.172Z,13.50
2019-04-27T23:34:55.705Z,13.60
2019-04-27T23:37:24.480Z,13.70
2019-04-27T23:39:53.112Z,13.70
2019-04-27T23:42:21.801Z,13.50
2019-04-27T23:44:50.150Z,13.50
2019-04-27T23:47:18.663Z,13.60
2019-04-27T23:49:50.859Z,13.70
2019-04-27T23:52:24.440Z,13.60
2019-04-27T23:54:52.926Z,13.60
2019-04-27T23:57:21.885Z,13.60
2019-04-27T23:59:51.508Z,13.60
